createdAt,value
2022-10-17T00:01:17.234Z,12.69
2022-10-17T00:03:19.620Z,12.42
2022-10-17T00:05:21.364Z,12.29
2022-10-17T00:07:23.106Z,12.23
2022-10-17T00:09:25.228Z,12.29
2022-10-17T00:11:27.088Z,12.30
2022-10-17T00:13:29.019Z,12.29
2022-10-17T00:15:31.090Z,12.02
2022-10-17T00:17:33.070Z,12.32
2022-10-17T00:19:34.777Z,12.35
2022-10-17T00:21:36.781Z,12.38
2022-10-17T00:23:38.461Z,12.40
2022-10-17T00:25:40.143Z,12.42
2022-10-17T00:27:42.233Z,12.42
2022-10-17T00:29:48.642Z,12.27
2022-10-17T00:31:50.406Z,12.09
2022-10-17T00:33:53.218Z,12.13
2022-10-17T00:36:08.936Z,12.05
2022-10-17T00:38:10.658Z,12.14
2022-10-17T00:40:13.119Z,12.02
2022-10-17T00:42:14.916Z,11.81
2022-10-17T00:44:32.036Z,12.05
2022-10-17T00:46:40.318Z,12.08
2022-10-17T00:48:42.530Z,12.05
2022-10-17T00:50:48.057Z,12.00
2022-10-17T00:52:50.614Z,11.94
2022-10-17T00:54:58.484Z,11.80
2022-10-17T00:57:01.301Z,11.76
2022-10-17T00:59:03.817Z,11.77
2022-10-17T01:01:05.661Z,11.80
2022-10-17T01:03:07.447Z,11.81
2022-10-17T01:05:09.967Z,11.82
2022-10-17T01:07:11.741Z,11.82
2022-10-17T01:09:13.654Z,11.89
2022-10-17T01:11:50.662Z,11.98
2022-10-17T01:14:15.003Z,11.82
2022-10-17T01:16:32.337Z,11.62
2022-10-17T01:18:46.737Z,11.72
2022-10-17T01:21:05.596Z,11.80
2022-10-17T01:23:50.706Z,11.87
2022-10-17T01:25:52.286Z,11.85
2022-10-17T01:28:24.224Z,11.81
2022-10-17T01:30:50.490Z,11.71
2022-10-17T01:33:15.668Z,11.77
2022-10-17T01:35:33.609Z,11.84
2022-10-17T01:37:47.080Z,11.90
2022-10-17T01:39:57.341Z,11.93
2022-10-17T01:42:17.093Z,12.06
2022-10-17T01:44:33.613Z,12.16
2022-10-17T01:47:00.391Z,12.26
2022-10-17T01:49:04.102Z,12.35
2022-10-17T01:51:12.909Z,12.41
2022-10-17T01:53:37.471Z,12.45
2022-10-17T01:55:46.077Z,12.44
2022-10-17T01:57:55.223Z,12.31
2022-10-17T01:59:57.449Z,12.19
2022-10-17T02:02:00.629Z,12.23
2022-10-17T02:04:05.042Z,12.22
2022-10-17T02:06:07.869Z,12.14
2022-10-17T02:08:10.129Z,12.29
2022-10-17T02:10:21.316Z,12.12
2022-10-17T02:12:33.933Z,12.23
2022-10-17T02:14:44.673Z,12.32
2022-10-17T02:17:08.174Z,12.28
2022-10-17T02:19:51.047Z,12.13
2022-10-17T02:22:18.683Z,12.18
2022-10-17T02:24:32.415Z,12.24
2022-10-17T02:26:41.340Z,12.27
2022-10-17T02:29:03.512Z,12.23
2022-10-17T02:31:20.234Z,12.06
2022-10-17T02:33:32.771Z,11.97
2022-10-17T02:35:40.269Z,12.05
2022-10-17T02:37:44.313Z,12.13
2022-10-17T02:39:48.498Z,12.23
2022-10-17T02:41:52.908Z,12.17
2022-10-17T02:43:57.646Z,12.34
2022-10-17T02:46:02.055Z,12.44
2022-10-17T02:48:20.520Z,12.49
2022-10-17T02:50:30.314Z,12.57
2022-10-17T02:52:45.753Z,12.60
2022-10-17T02:54:57.562Z,12.43
2022-10-17T02:57:14.191Z,12.37
2022-10-17T02:59:18.954Z,12.36
2022-10-17T03:01:21.321Z,12.25
2022-10-17T03:03:29.043Z,12.16
2022-10-17T03:05:30.756Z,12.36
2022-10-17T03:07:33.048Z,12.35
2022-10-17T03:09:34.777Z,12.46
2022-10-17T03:11:36.657Z,12.50
2022-10-17T03:13:39.864Z,12.45
2022-10-17T03:15:42.118Z,12.29
2022-10-17T03:19:50.916Z,12.26
2022-10-17T03:21:52.671Z,12.15
2022-10-17T03:23:54.491Z,12.01
2022-10-17T03:25:56.351Z,11.87
2022-10-17T03:27:59.528Z,11.80
2022-10-17T03:30:01.521Z,11.84
2022-10-17T03:32:03.641Z,11.90
2022-10-17T03:34:05.484Z,11.89
2022-10-17T03:36:13.747Z,11.80
2022-10-17T03:38:15.735Z,11.72
2022-10-17T03:40:17.609Z,11.79
2022-10-17T03:42:19.354Z,11.86
2022-10-17T03:44:21.095Z,11.96
2022-10-17T03:46:22.801Z,12.02
2022-10-17T03:48:25.079Z,12.06
2022-10-17T03:50:26.977Z,12.11
2022-10-17T03:52:28.702Z,12.30
2022-10-17T03:54:30.616Z,12.38
2022-10-17T03:56:32.426Z,12.32
2022-10-17T03:58:34.111Z,12.30
2022-10-17T04:00:36.795Z,12.34
2022-10-17T04:02:38.784Z,12.33
2022-10-17T04:04:40.473Z,12.26
2022-10-17T04:06:42.231Z,12.24
2022-10-17T04:08:44.112Z,12.28
2022-10-17T04:10:45.789Z,12.25
2022-10-17T04:12:47.715Z,12.18
2022-10-17T04:14:49.591Z,12.32
2022-10-17T04:16:51.315Z,12.36
2022-10-17T04:18:55.278Z,12.33
2022-10-17T04:20:57.257Z,12.36
2022-10-17T04:22:58.929Z,12.41
2022-10-17T04:25:00.646Z,12.47
2022-10-17T04:27:02.662Z,12.46
2022-10-17T04:29:04.362Z,12.49
2022-10-17T04:31:08.393Z,12.40
2022-10-17T04:33:10.281Z,12.20
2022-10-17T04:35:11.988Z,12.28
2022-10-17T04:37:13.940Z,12.15
2022-10-17T04:39:15.708Z,12.20
2022-10-17T04:41:18.654Z,12.25
2022-10-17T04:43:20.763Z,12.23
2022-10-17T04:45:22.521Z,12.30
2022-10-17T04:47:24.355Z,12.30
2022-10-17T04:49:26.174Z,12.33
2022-10-17T04:51:28.011Z,12.31
2022-10-17T04:53:32.419Z,12.26
2022-10-17T04:55:37.853Z,12.19
2022-10-17T04:57:39.666Z,12.24
2022-10-17T04:59:41.370Z,12.27
2022-10-17T05:01:43.190Z,12.25
2022-10-17T05:03:45.604Z,12.20
2022-10-17T05:05:47.508Z,12.25
2022-10-17T05:07:49.424Z,12.23
2022-10-17T05:09:51.200Z,12.17
2022-10-17T05:11:52.863Z,12.03
2022-10-17T05:13:57.384Z,11.83
2022-10-17T05:16:00.805Z,11.82
2022-10-17T05:18:03.223Z,11.83
2022-10-17T05:20:05.868Z,11.81
2022-10-17T05:22:07.718Z,11.90
2022-10-17T05:24:11.509Z,11.95
2022-10-17T05:26:13.795Z,11.99
2022-10-17T05:28:15.613Z,12.08
2022-10-17T05:30:17.905Z,12.14
2022-10-17T05:32:19.599Z,12.02
2022-10-17T05:34:21.315Z,12.10
2022-10-17T05:36:23.053Z,12.23
2022-10-17T05:38:25.174Z,12.25
2022-10-17T05:40:27.057Z,12.21
2022-10-17T05:42:29.128Z,12.08
2022-10-17T05:44:31.674Z,12.10
2022-10-17T05:46:33.585Z,12.05
2022-10-17T05:48:35.948Z,12.02
2022-10-17T05:50:37.682Z,12.09
2022-10-17T05:52:40.028Z,12.18
2022-10-17T05:54:42.259Z,12.32
2022-10-17T05:56:44.137Z,12.55
2022-10-17T05:58:50.935Z,12.89
2022-10-17T06:01:01.855Z,13.01
2022-10-17T06:03:03.942Z,13.08
2022-10-17T06:05:06.090Z,13.06
2022-10-17T06:07:07.807Z,13.29
2022-10-17T06:09:09.887Z,13.33
2022-10-17T06:11:12.659Z,13.41
2022-10-17T06:13:14.519Z,13.58
2022-10-17T06:15:16.444Z,14.09
2022-10-17T06:17:18.330Z,14.46
2022-10-17T06:19:20.061Z,14.69
2022-10-17T06:21:25.079Z,14.99
2022-10-17T06:23:26.941Z,15.27
2022-10-17T06:25:31.357Z,15.45
2022-10-17T06:27:33.156Z,15.42
2022-10-17T06:29:37.322Z,15.32
2022-10-17T06:31:39.033Z,14.98
2022-10-17T06:33:40.917Z,14.76
2022-10-17T06:35:43.200Z,14.63
2022-10-17T06:37:44.934Z,14.75
2022-10-17T06:39:46.668Z,14.65
2022-10-17T06:41:48.603Z,14.79
2022-10-17T06:43:50.277Z,14.61
2022-10-17T06:45:52.104Z,14.51
2022-10-17T06:47:54.096Z,14.08
2022-10-17T06:49:55.817Z,14.02
2022-10-17T06:51:57.730Z,13.91
2022-10-17T06:53:59.485Z,13.97
2022-10-17T06:56:01.428Z,14.08
2022-10-17T06:58:03.348Z,14.30
2022-10-17T07:00:05.895Z,14.62
2022-10-17T07:02:09.788Z,14.82
2022-10-17T07:04:11.699Z,14.92
2022-10-17T07:06:13.464Z,15.26
2022-10-17T07:08:15.148Z,15.23
2022-10-17T07:10:17.037Z,15.24
2022-10-17T07:12:18.943Z,15.45
2022-10-17T07:14:20.692Z,15.63
2022-10-17T07:16:22.608Z,15.92
2022-10-17T07:18:24.418Z,15.71
2022-10-17T07:20:26.109Z,15.67
2022-10-17T07:22:28.039Z,15.82
2022-10-17T07:24:29.991Z,15.96
2022-10-17T07:26:31.679Z,15.77
2022-10-17T07:28:35.332Z,15.82
2022-10-17T07:30:36.985Z,15.84
2022-10-17T07:32:38.711Z,15.88
2022-10-17T07:34:40.519Z,16.02
2022-10-17T07:36:42.269Z,16.23
2022-10-17T07:38:43.996Z,16.29
2022-10-17T07:40:45.803Z,16.31
2022-10-17T07:42:47.516Z,16.17
2022-10-17T07:44:49.227Z,16.31
2022-10-17T07:46:51.099Z,16.42
2022-10-17T07:48:52.820Z,16.47
2022-10-17T07:50:54.529Z,16.41
2022-10-17T07:52:56.499Z,16.25
2022-10-17T07:54:58.536Z,16.39
2022-10-17T07:57:00.347Z,16.55
2022-10-17T07:59:05.114Z,16.54
2022-10-17T08:01:14.901Z,16.83
2022-10-17T08:03:17.575Z,17.11
2022-10-17T08:05:19.431Z,17.18
2022-10-17T08:07:25.551Z,16.98
2022-10-17T08:09:30.975Z,17.04
2022-10-17T08:11:32.809Z,17.44
2022-10-17T08:13:34.860Z,17.73
2022-10-17T08:15:37.814Z,17.72
2022-10-17T08:17:39.725Z,17.86
2022-10-17T08:19:41.666Z,17.88
2022-10-17T08:21:43.394Z,18.07
2022-10-17T08:23:45.388Z,18.10
2022-10-17T08:25:47.162Z,18.24
2022-10-17T08:27:49.776Z,18.38
2022-10-17T08:29:52.235Z,18.48
2022-10-17T08:31:58.690Z,18.55
2022-10-17T08:34:03.180Z,18.61
2022-10-17T08:36:06.403Z,18.67
2022-10-17T08:38:11.019Z,18.90
2022-10-17T08:40:24.998Z,18.67
2022-10-17T08:42:54.099Z,18.69
2022-10-17T08:44:55.844Z,18.94
2022-10-17T08:47:01.805Z,18.78
2022-10-17T08:49:12.103Z,18.97
2022-10-17T08:51:23.074Z,18.83
2022-10-17T08:53:38.593Z,19.03
2022-10-17T08:55:45.277Z,19.24
2022-10-17T08:57:48.477Z,19.46
2022-10-17T08:59:53.556Z,19.33
2022-10-17T09:02:04.370Z,19.43
2022-10-17T09:04:08.819Z,19.57
2022-10-17T09:06:27.554Z,19.26
2022-10-17T09:08:52.257Z,19.54
2022-10-17T09:11:18.928Z,19.44
2022-10-17T09:13:49.660Z,19.53
2022-10-17T09:16:09.664Z,19.10
2022-10-17T09:18:34.439Z,19.25
2022-10-17T09:20:45.674Z,19.66
2022-10-17T09:23:01.254Z,19.66
2022-10-17T09:25:10.291Z,19.52
2022-10-17T09:27:34.569Z,19.80
2022-10-17T09:29:41.506Z,19.83
2022-10-17T09:32:00.334Z,20.04
2022-10-17T09:34:03.268Z,19.87
2022-10-17T09:36:13.595Z,20.13
2022-10-17T09:38:21.121Z,20.18
2022-10-17T09:40:34.196Z,19.77
2022-10-17T09:42:36.898Z,19.62
2022-10-17T09:45:01.599Z,19.55
2022-10-17T09:47:24.550Z,19.55
2022-10-17T09:49:37.792Z,19.62
2022-10-17T09:51:39.742Z,19.76
2022-10-17T09:53:45.217Z,19.68
2022-10-17T09:55:55.205Z,19.78
2022-10-17T09:58:00.369Z,19.93
2022-10-17T10:00:06.967Z,20.00
2022-10-17T10:02:22.968Z,20.08
2022-10-17T10:04:25.847Z,19.98
2022-10-17T10:06:29.309Z,20.25
2022-10-17T10:08:34.675Z,20.38
2022-10-17T10:10:36.525Z,20.01
2022-10-17T10:12:39.308Z,19.92
2022-10-17T10:14:41.627Z,20.27
2022-10-17T10:16:47.889Z,20.29
2022-10-17T10:18:51.315Z,19.91
2022-10-17T10:21:12.827Z,19.58
2022-10-17T10:23:17.411Z,19.74
2022-10-17T10:25:19.313Z,20.01
2022-10-17T10:27:29.488Z,19.73
2022-10-17T10:29:38.539Z,19.90
2022-10-17T10:31:40.793Z,19.88
2022-10-17T10:33:47.009Z,19.89
2022-10-17T10:36:00.338Z,19.77
2022-10-17T10:38:08.159Z,20.13
2022-10-17T10:40:31.047Z,20.16
2022-10-17T10:42:39.350Z,20.13
2022-10-17T10:44:41.332Z,20.02
2022-10-17T10:46:43.317Z,20.41
2022-10-17T10:48:58.024Z,20.54
2022-10-17T10:51:01.285Z,20.65
2022-10-17T10:53:22.210Z,20.77
2022-10-17T10:55:32.602Z,20.58
2022-10-17T10:57:36.938Z,20.79
2022-10-17T10:59:47.415Z,20.24
2022-10-17T11:02:02.469Z,20.00
2022-10-17T11:04:14.920Z,20.27
2022-10-17T11:06:26.409Z,20.56
2022-10-17T11:08:50.299Z,20.47
2022-10-17T11:11:25.796Z,20.80
2022-10-17T11:13:32.900Z,20.81
2022-10-17T11:15:49.618Z,20.75
2022-10-17T11:18:00.675Z,20.63
2022-10-17T11:20:16.794Z,20.80
2022-10-17T11:22:28.196Z,20.75
2022-10-17T11:24:43.395Z,21.10
2022-10-17T11:26:59.057Z,21.06
2022-10-17T11:29:04.661Z,21.08
2022-10-17T11:31:10.304Z,21.01
2022-10-17T11:33:19.015Z,21.00
2022-10-17T11:35:26.896Z,20.95
2022-10-17T11:37:38.897Z,21.09
2022-10-17T11:39:49.260Z,20.99
2022-10-17T11:42:10.061Z,21.17
2022-10-17T11:44:29.578Z,21.26
2022-10-17T11:46:35.148Z,21.47
2022-10-17T11:48:46.087Z,21.55
2022-10-17T11:53:20.619Z,20.99
2022-10-17T11:55:26.040Z,21.20
2022-10-17T11:57:52.704Z,21.13
2022-10-17T12:00:13.370Z,21.40
2022-10-17T12:02:35.626Z,21.49
2022-10-17T12:05:04.947Z,21.47
2022-10-17T12:07:19.069Z,21.42
2022-10-17T12:09:40.548Z,21.60
2022-10-17T12:12:00.250Z,21.71
2022-10-17T12:14:05.841Z,21.54
2022-10-17T12:16:20.230Z,21.24
2022-10-17T12:18:25.749Z,21.26
2022-10-17T12:20:34.592Z,21.15
2022-10-17T12:22:36.414Z,21.31
2022-10-17T12:24:52.830Z,21.41
2022-10-17T12:26:57.022Z,21.60
2022-10-17T12:28:59.522Z,21.57
2022-10-17T12:31:23.878Z,21.63
2022-10-17T12:33:25.613Z,21.56
2022-10-17T12:35:28.893Z,21.68
2022-10-17T12:37:45.912Z,21.43
2022-10-17T12:39:47.788Z,21.41
2022-10-17T12:41:49.516Z,21.35
2022-10-17T12:43:54.855Z,21.42
2022-10-17T12:46:04.742Z,21.23
2022-10-17T12:48:10.014Z,21.42
2022-10-17T12:50:49.323Z,21.45
2022-10-17T12:52:59.963Z,21.33
2022-10-17T12:55:13.415Z,21.29
2022-10-17T12:57:20.514Z,21.27
2022-10-17T12:59:28.953Z,21.15
2022-10-17T13:01:36.952Z,21.46
2022-10-17T13:03:44.202Z,21.49
2022-10-17T13:05:51.049Z,21.55
2022-10-17T13:07:54.579Z,21.67
2022-10-17T13:09:56.333Z,21.36
2022-10-17T13:12:01.615Z,21.39
2022-10-17T13:14:12.658Z,21.47
2022-10-17T13:16:29.462Z,21.26
2022-10-17T13:18:31.474Z,21.06
2022-10-17T13:20:33.459Z,21.22
2022-10-17T13:22:35.290Z,21.42
2022-10-17T13:24:41.908Z,21.27
2022-10-17T13:26:46.261Z,21.26
2022-10-17T13:29:14.034Z,21.50
2022-10-17T13:31:51.681Z,21.35
2022-10-17T13:33:58.058Z,21.37
2022-10-17T13:36:02.581Z,21.26
2022-10-17T13:38:06.825Z,21.35
2022-10-17T13:42:42.219Z,21.32
2022-10-17T13:44:44.582Z,21.42
2022-10-17T13:46:47.129Z,21.47
2022-10-17T13:48:48.918Z,21.55
2022-10-17T13:50:56.392Z,21.58
2022-10-17T13:53:20.518Z,21.55
2022-10-17T13:55:22.237Z,21.61
2022-10-17T13:57:25.393Z,21.36
2022-10-17T13:59:39.105Z,21.21
2022-10-17T14:01:40.897Z,21.24
2022-10-17T14:03:48.900Z,21.39
2022-10-17T14:06:12.395Z,21.46
2022-10-17T14:08:21.655Z,21.45
2022-10-17T14:10:36.806Z,21.38
2022-10-17T14:12:42.953Z,21.39
2022-10-17T14:15:09.868Z,21.30
2022-10-17T14:17:25.852Z,21.17
2022-10-17T14:19:33.401Z,21.19
2022-10-17T14:21:43.859Z,21.30
2022-10-17T14:23:46.360Z,21.25
2022-10-17T14:25:48.105Z,21.18
2022-10-17T14:28:01.228Z,21.07
2022-10-17T14:30:51.775Z,21.12
2022-10-17T14:32:49.472Z,21.23
2022-10-17T14:35:05.625Z,21.12
2022-10-17T14:37:24.375Z,21.11
2022-10-17T14:39:27.882Z,21.11
2022-10-17T14:41:47.845Z,21.08
2022-10-17T14:43:58.846Z,20.98
2022-10-17T14:46:01.459Z,20.90
2022-10-17T14:48:24.015Z,20.94
2022-10-17T14:50:28.501Z,21.00
2022-10-17T14:52:31.952Z,21.00
2022-10-17T14:54:36.302Z,21.00
2022-10-17T14:56:42.446Z,20.95
2022-10-17T14:58:44.232Z,20.79
2022-10-17T15:00:45.959Z,20.64
2022-10-17T15:02:49.121Z,20.58
2022-10-17T15:04:50.924Z,20.54
2022-10-17T15:06:55.706Z,20.45
2022-10-17T15:08:58.059Z,20.31
2022-10-17T15:10:59.816Z,20.40
2022-10-17T15:15:24.516Z,20.28
2022-10-17T15:17:31.580Z,20.27
2022-10-17T15:19:33.373Z,20.18
2022-10-17T15:21:39.531Z,20.03
2022-10-17T15:23:45.148Z,19.95
2022-10-17T15:25:46.869Z,19.82
2022-10-17T15:27:48.965Z,19.85
2022-10-17T15:29:51.475Z,19.83
2022-10-17T15:31:53.422Z,19.77
2022-10-17T15:33:55.316Z,19.66
2022-10-17T15:37:59.754Z,19.48
2022-10-17T15:40:01.585Z,19.43
2022-10-17T15:42:08.537Z,19.39
2022-10-17T15:44:10.422Z,19.28
2022-10-17T15:46:14.684Z,19.22
2022-10-17T15:48:23.617Z,19.16
2022-10-17T15:50:25.422Z,19.05
2022-10-17T15:52:28.027Z,19.00
2022-10-17T15:54:29.835Z,18.94
2022-10-17T15:56:34.664Z,18.86
2022-10-17T15:58:39.569Z,18.80
2022-10-17T16:00:41.919Z,18.70
2022-10-17T16:02:44.215Z,18.50
2022-10-17T16:04:47.482Z,18.45
2022-10-17T16:06:49.277Z,18.39
2022-10-17T16:08:51.647Z,18.36
2022-10-17T16:10:53.743Z,18.32
2022-10-17T16:12:55.661Z,18.30
2022-10-17T16:14:57.379Z,18.29
2022-10-17T16:17:00.170Z,18.30
2022-10-17T16:19:02.588Z,18.31
2022-10-17T16:21:04.464Z,18.21
2022-10-17T16:23:06.467Z,18.19
2022-10-17T16:25:21.628Z,18.11
2022-10-17T16:27:23.326Z,18.11
2022-10-17T16:29:25.180Z,18.07
2022-10-17T16:31:30.386Z,18.04
2022-10-17T16:33:32.689Z,17.99
2022-10-17T16:35:36.793Z,17.99
2022-10-17T16:37:39.411Z,17.98
2022-10-17T16:39:41.097Z,17.91
2022-10-17T16:41:42.970Z,17.86
2022-10-17T16:43:44.770Z,17.86
2022-10-17T16:45:46.457Z,17.81
2022-10-17T16:47:48.881Z,17.78
2022-10-17T16:49:50.717Z,17.75
2022-10-17T16:51:52.427Z,17.63
2022-10-17T16:53:55.701Z,17.59
2022-10-17T16:56:04.583Z,17.49
2022-10-17T16:58:06.346Z,17.49
2022-10-17T17:00:08.853Z,17.45
2022-10-17T17:02:11.990Z,17.37
2022-10-17T17:04:13.863Z,17.34
2022-10-17T17:06:21.512Z,17.32
2022-10-17T17:08:23.779Z,17.26
2022-10-17T17:10:25.510Z,17.18
2022-10-17T17:12:27.264Z,16.98
2022-10-17T17:14:29.031Z,17.18
2022-10-17T17:16:32.486Z,17.17
2022-10-17T17:18:35.009Z,17.08
2022-10-17T17:20:36.756Z,17.15
2022-10-17T17:22:38.551Z,17.11
2022-10-17T17:24:40.386Z,17.08
2022-10-17T17:26:42.190Z,17.04
2022-10-17T17:28:44.171Z,16.92
2022-10-17T17:30:45.927Z,16.98
2022-10-17T17:32:47.736Z,16.97
2022-10-17T17:34:49.461Z,16.97
2022-10-17T17:36:51.345Z,16.71
2022-10-17T17:39:00.837Z,16.92
2022-10-17T17:41:06.737Z,16.90
2022-10-17T17:43:08.527Z,16.85
2022-10-17T17:45:10.914Z,16.83
2022-10-17T17:47:12.638Z,16.75
2022-10-17T17:49:14.665Z,16.71
2022-10-17T17:51:19.001Z,16.65
2022-10-17T17:53:20.751Z,16.55
2022-10-17T17:55:22.580Z,16.55
2022-10-17T17:57:24.359Z,16.44
2022-10-17T17:59:26.077Z,16.44
2022-10-17T18:01:30.572Z,16.40
2022-10-17T18:03:32.447Z,16.35
2022-10-17T18:05:34.293Z,16.25
2022-10-17T18:07:37.567Z,15.99
2022-10-17T18:09:39.247Z,15.86
2022-10-17T18:11:41.034Z,15.79
2022-10-17T18:13:43.205Z,15.77
2022-10-17T18:15:45.062Z,15.72
2022-10-17T18:17:46.934Z,15.69
2022-10-17T18:19:49.661Z,15.56
2022-10-17T18:21:51.448Z,15.58
2022-10-17T18:23:53.568Z,15.57
2022-10-17T18:25:56.983Z,15.47
2022-10-17T18:27:58.694Z,15.58
2022-10-17T18:30:00.390Z,15.61
2022-10-17T18:32:02.125Z,15.63
2022-10-17T18:34:05.012Z,15.44
2022-10-17T18:36:10.318Z,15.58
2022-10-17T18:38:12.213Z,15.46
2022-10-17T18:40:13.894Z,15.55
2022-10-17T18:42:15.650Z,15.43
2022-10-17T18:44:17.474Z,15.33
2022-10-17T18:46:21.875Z,15.33
2022-10-17T18:48:23.600Z,15.36
2022-10-17T18:50:25.805Z,15.39
2022-10-17T18:52:27.609Z,15.42
2022-10-17T18:54:29.357Z,15.31
2022-10-17T18:56:31.747Z,15.34
2022-10-17T18:58:33.549Z,15.31
2022-10-17T19:00:35.279Z,15.27
2022-10-17T19:02:38.062Z,15.30
2022-10-17T19:04:40.009Z,15.30
2022-10-17T19:06:42.759Z,15.29
2022-10-17T19:08:45.681Z,15.28
2022-10-17T19:10:47.406Z,15.23
2022-10-17T19:12:49.121Z,15.23
2022-10-17T19:14:50.870Z,15.27
2022-10-17T19:16:52.616Z,15.26
2022-10-17T19:19:02.042Z,15.15
2022-10-17T19:21:11.777Z,15.21
2022-10-17T19:23:13.537Z,15.17
2022-10-17T19:25:15.313Z,15.13
2022-10-17T19:27:17.166Z,15.09
2022-10-17T19:29:20.308Z,15.09
2022-10-17T19:31:26.961Z,15.09
2022-10-17T19:35:35.810Z,15.05
2022-10-17T19:37:37.934Z,15.02
2022-10-17T19:39:39.786Z,15.00
2022-10-17T19:41:44.062Z,15.02
2022-10-17T19:43:45.849Z,14.95
2022-10-17T19:46:12.018Z,14.93
2022-10-17T19:48:13.788Z,14.88
2022-10-17T19:50:15.598Z,14.82
2022-10-17T19:52:17.348Z,14.82
2022-10-17T19:54:19.129Z,14.73
2022-10-17T19:56:22.059Z,14.74
2022-10-17T19:58:25.121Z,14.75
2022-10-17T20:00:27.115Z,14.77
2022-10-17T20:02:29.138Z,14.76
2022-10-17T20:04:31.373Z,14.75
2022-10-17T20:06:33.752Z,14.76
2022-10-17T20:08:35.951Z,14.72
2022-10-17T20:10:37.702Z,14.69
2022-10-17T20:12:39.406Z,14.60
2022-10-17T20:14:41.316Z,14.63
2022-10-17T20:16:43.450Z,14.65
2022-10-17T20:18:45.360Z,14.67
2022-10-17T20:20:47.088Z,14.65
2022-10-17T20:22:48.916Z,14.58
2022-10-17T20:24:50.831Z,14.63
2022-10-17T20:26:52.600Z,14.56
2022-10-17T20:28:54.710Z,14.49
2022-10-17T20:30:56.656Z,14.50
2022-10-17T20:32:58.377Z,14.42
2022-10-17T20:35:00.847Z,14.45
2022-10-17T20:37:02.971Z,14.37
2022-10-17T20:39:05.763Z,14.36
2022-10-17T20:41:10.154Z,14.20
2022-10-17T20:43:13.043Z,14.27
2022-10-17T20:45:14.748Z,14.19
2022-10-17T20:47:33.152Z,14.24
2022-10-17T20:49:38.530Z,14.31
2022-10-17T20:51:40.307Z,14.33
2022-10-17T20:53:42.289Z,14.32
2022-10-17T20:55:44.206Z,14.27
2022-10-17T20:57:45.901Z,14.21
2022-10-17T20:59:47.695Z,14.25
2022-10-17T21:01:49.438Z,14.24
2022-10-17T21:03:52.755Z,14.24
2022-10-17T21:05:54.645Z,14.21
2022-10-17T21:07:56.464Z,14.23
2022-10-17T21:10:07.620Z,14.20
2022-10-17T21:12:30.912Z,14.12
2022-10-17T21:14:41.836Z,14.13
2022-10-17T21:16:43.565Z,14.12
2022-10-17T21:18:46.119Z,14.13
2022-10-17T21:20:47.985Z,14.08
2022-10-17T21:22:49.666Z,14.04
2022-10-17T21:24:51.697Z,14.04
2022-10-17T21:26:53.388Z,14.03
2022-10-17T21:28:55.255Z,13.92
2022-10-17T21:31:11.068Z,14.01
2022-10-17T21:33:12.754Z,14.00
2022-10-17T21:35:14.570Z,13.96
2022-10-17T21:37:16.792Z,13.87
2022-10-17T21:39:18.912Z,13.81
2022-10-17T21:41:23.829Z,13.81
2022-10-17T21:43:25.656Z,13.81
2022-10-17T21:45:27.339Z,13.82
2022-10-17T21:47:29.047Z,13.84
2022-10-17T21:49:30.893Z,13.83
2022-10-17T21:51:32.652Z,13.84
2022-10-17T21:53:35.194Z,13.86
2022-10-17T21:55:37.497Z,13.77
2022-10-17T21:57:39.227Z,13.70
2022-10-17T21:59:40.897Z,13.64
2022-10-17T22:01:45.789Z,13.43
2022-10-17T22:03:51.189Z,13.06
2022-10-17T22:06:06.912Z,13.01
2022-10-17T22:08:16.625Z,12.88
2022-10-17T22:10:18.313Z,13.00
2022-10-17T22:12:20.028Z,13.09
2022-10-17T22:14:23.490Z,13.12
2022-10-17T22:16:26.331Z,13.08
2022-10-17T22:18:28.509Z,13.09
2022-10-17T22:20:30.284Z,13.12
2022-10-17T22:22:31.997Z,13.13
2022-10-17T22:24:33.810Z,13.16
2022-10-17T22:26:37.422Z,13.16
2022-10-17T22:28:39.887Z,13.11
2022-10-17T22:30:42.256Z,13.02
2022-10-17T22:32:44.166Z,12.84
2022-10-17T22:34:47.120Z,12.95
2022-10-17T22:36:49.632Z,12.88
2022-10-17T22:38:51.555Z,12.92
2022-10-17T22:40:53.297Z,12.74
2022-10-17T22:42:55.004Z,12.73
2022-10-17T22:44:57.041Z,12.72
2022-10-17T22:46:58.798Z,12.63
2022-10-17T22:49:00.595Z,12.56
2022-10-17T22:51:02.533Z,12.52
2022-10-17T22:53:04.256Z,12.47
2022-10-17T22:55:06.731Z,12.49
2022-10-17T22:57:08.794Z,12.48
2022-10-17T22:59:10.475Z,12.40
2022-10-17T23:01:17.689Z,12.36
2022-10-17T23:03:21.229Z,12.34
2022-10-17T23:05:22.903Z,12.33
2022-10-17T23:07:25.229Z,12.24
2022-10-17T23:11:33.810Z,12.25
2022-10-17T23:13:36.035Z,12.27
2022-10-17T23:15:38.103Z,12.26
2022-10-17T23:17:39.769Z,12.30
2022-10-17T23:19:41.634Z,12.37
2022-10-17T23:21:43.756Z,12.33
2022-10-17T23:23:45.489Z,12.09
2022-10-17T23:25:47.764Z,12.16
2022-10-17T23:27:49.537Z,12.18
2022-10-17T23:29:51.259Z,12.28
2022-10-17T23:31:56.020Z,11.94
2022-10-17T23:33:58.596Z,12.08
2022-10-17T23:36:04.671Z,12.08
2022-10-17T23:38:06.440Z,11.90
2022-10-17T23:40:09.055Z,11.90
2022-10-17T23:42:10.765Z,11.89
2022-10-17T23:44:12.689Z,11.80
2022-10-17T23:46:14.773Z,11.82
2022-10-17T23:48:16.458Z,11.92
2022-10-17T23:50:18.416Z,11.80
2022-10-17T23:52:20.141Z,11.89
2022-10-17T23:54:21.882Z,11.75
2022-10-17T23:56:23.733Z,11.94
2022-10-17T23:58:25.699Z,12.02
